Time;durP1;ratioP1;P1;durP2;ratioP2;P2;SDS_P1;SDS_P2;PMS_P1;PMS_P2;Temp;Humidity;BMP_temperature;BMP_pressure;BME280_temperature;BME280_humidity;BME280_pressure;Samples;Min_cycle;Max_cycle;Signal;HPM_P1;HPM_P2
2022/12/19 00:00:37;;;;;;;41.25;21.73;;;;;;;-0.67;100.00;101771.44;5073103;28;20044;-55
2022/12/19 00:03:05;;;;;;;46.22;24.05;;;;;;;-0.69;100.00;101776.63;5068582;28;20045;-52
2022/12/19 00:05:36;;;;;;;48.30;23.05;;;;;;;-0.66;100.00;101775.75;5071571;28;20060;-54
2022/12/19 00:08:05;;;;;;;43.97;23.73;;;;;;;-0.58;100.00;101768.81;5074082;28;20510;-54
2022/12/19 00:10:55;;;;;;;44.28;22.08;;;;;;;-0.64;100.00;101768.88;5073295;28;20507;-52
2022/12/19 00:13:23;;;;;;;47.78;23.30;;;;;;;-0.61;100.00;101768.84;5073033;28;20048;-54
2022/12/19 00:15:52;;;;;;;51.00;22.55;;;;;;;-0.58;100.00;101766.25;5073563;28;20048;-51
2022/12/19 00:18:20;;;;;;;46.85;22.58;;;;;;;-0.56;100.00;101761.94;5073370;28;20499;-54
2022/12/19 00:20:55;;;;;;;39.92;21.73;;;;;;;-0.63;100.00;101747.31;5071907;28;20439;-53
2022/12/19 00:23:23;;;;;;;41.05;21.83;;;;;;;-0.63;100.00;101734.38;5068942;28;20419;-54
2022/12/19 00:25:53;;;;;;;44.10;22.58;;;;;;;-0.56;100.00;101741.28;5070488;28;20047;-52
2022/12/19 00:28:22;;;;;;;43.47;22.25;;;;;;;-0.54;100.00;101744.69;5073093;28;20043;-55
2022/12/19 00:30:50;;;;;;;45.40;23.52;;;;;;;-0.62;100.00;101725.78;5070577;28;20052;-55
2022/12/19 00:33:22;;;;;;;47.47;22.23;;;;;;;-0.56;100.00;101730.06;5069088;28;20072;-55
2022/12/19 00:35:50;;;;;;;46.58;22.83;;;;;;;-0.56;100.00;101727.47;5071800;28;20395;-52
2022/12/19 00:38:18;;;;;;;45.40;23.27;;;;;;;-0.63;100.00;101724.06;5071962;28;20557;-50
2022/12/19 00:40:46;;;;;;;46.65;23.65;;;;;;;-0.54;100.00;101726.59;5068713;28;20047;-56
2022/12/19 00:43:15;;;;;;;48.67;23.25;;;;;;;-0.55;100.00;101709.38;5070551;28;20438;-52
2022/12/19 00:45:43;;;;;;;48.00;23.30;;;;;;;-0.49;100.00;101699.88;5070184;28;20086;-54
2022/12/19 00:48:11;;;;;;;47.58;22.95;;;;;;;-0.49;100.00;101692.13;5067387;28;20051;-51
2022/12/19 00:50:42;;;;;;;49.85;22.83;;;;;;;-0.47;100.00;101682.66;5071340;28;20052;-54
2022/12/19 00:53:10;;;;;;;46.33;22.50;;;;;;;-0.39;100.00;101684.31;5072753;28;20055;-54
2022/12/19 00:55:39;;;;;;;42.17;21.85;;;;;;;-0.45;100.00;101693.81;5072799;28;20082;-52
2022/12/19 00:58:07;;;;;;;49.58;23.88;;;;;;;-0.44;100.00;101698.13;5072975;28;20091;-54
2022/12/19 01:00:36;;;;;;;48.13;23.55;;;;;;;-0.47;100.00;101688.66;5072656;28;20052;-54
2022/12/19 01:03:05;;;;;;;43.60;22.50;;;;;;;-0.40;100.00;101673.97;5072631;28;20106;-54
2022/12/19 01:05:33;;;;;;;50.38;23.40;;;;;;;-0.48;100.00;101665.41;5072523;28;20057;-51
2022/12/19 01:08:01;;;;;;;52.88;24.90;;;;;;;-0.52;100.00;101644.75;5071157;28;20340;-53
2022/12/19 01:10:29;;;;;;;51.83;24.27;;;;;;;-0.56;100.00;101635.31;5069107;28;20052;-51
2022/12/19 01:12:57;;;;;;;49.67;24.48;;;;;;;-0.54;100.00;101630.97;5070593;28;20503;-52
2022/12/19 01:15:25;;;;;;;51.65;26.05;;;;;;;-0.47;100.00;101628.38;5072360;28;20048;-53
2022/12/19 01:17:54;;;;;;;55.90;25.88;;;;;;;-0.44;100.00;101636.94;5072491;28;20106;-54
2022/12/19 01:20:22;;;;;;;49.83;24.35;;;;;;;-0.42;100.00;101642.97;5072321;28;20045;-54
2022/12/19 01:22:57;;;;;;;53.63;24.05;;;;;;;-0.42;100.00;101644.72;5072290;28;20218;-54
2022/12/19 01:25:28;;;;;;;54.83;25.35;;;;;;;-0.38;100.00;101649.84;5072084;28;20048;-54
2022/12/19 01:27:56;;;;;;;54.80;24.60;;;;;;;-0.35;100.00;101648.97;5071948;28;20067;-52
2022/12/19 01:30:25;;;;;;;49.58;24.08;;;;;;;-0.34;100.00;101648.09;5072273;28;20442;-54
2022/12/19 01:32:56;;;;;;;53.47;25.25;;;;;;;-0.33;100.00;101643.78;5072194;28;20048;-50
2022/12/19 01:35:25;;;;;;;56.22;26.52;;;;;;;-0.32;100.00;101641.19;5072055;28;20502;-51
2022/12/19 01:37:54;;;;;;;50.47;23.27;;;;;;;-0.26;100.00;101628.22;5072317;28;20072;-53
2022/12/19 01:40:36;;;;;;;53.70;25.10;;;;;;;-0.24;100.00;101626.47;5071967;28;20071;-55
2022/12/19 01:43:05;;;;;;;46.92;23.05;;;;;;;-0.21;100.00;101618.69;5071443;28;20052;-55
2022/12/19 01:45:34;;;;;;;47.25;23.98;;;;;;;-0.13;100.00;101622.94;5074134;28;20102;-52
2022/12/19 01:48:27;;;;;;;51.80;23.88;;;;;;;-0.18;100.00;101621.25;5076367;28;20052;-54
2022/12/19 01:50:58;;;;;;;48.30;24.20;;;;;;;-0.09;100.00;101627.22;5076019;28;20057;-53
2022/12/19 01:53:33;;;;;;;52.75;24.70;;;;;;;-0.11;100.00;101613.44;5071544;28;20059;-54
2022/12/19 01:56:02;;;;;;;;;;;;;;;-0.03;100.00;101611.63;5073072;28;20049;-51
2022/12/19 01:58:39;;;;;;;47.67;22.50;;;;;;;0.01;100.00;101602.13;5076251;28;20414;-47
2022/12/19 02:01:08;;;;;;;51.03;25.13;;;;;;;0.00;100.00;101611.63;5075743;28;20048;-52
2022/12/19 02:03:51;;;;;;;50.90;23.05;;;;;;;-0.02;100.00;101608.19;5076173;28;20062;-49
2022/12/19 02:06:21;;;;;;;54.33;24.70;;;;;;;0.04;100.00;101596.94;5075056;28;20070;-52
2022/12/19 02:08:50;;;;;;;52.90;24.92;;;;;;;0.02;100.00;101589.19;5075925;28;20047;-47
2022/12/19 02:11:18;;;;;;;53.83;24.80;;;;;;;0.07;100.00;101594.31;5074147;28;20110;-50
2022/12/19 02:13:47;;;;;;;52.97;25.13;;;;;;;0.05;100.00;101586.56;5075688;28;20056;-46
2022/12/19 02:16:24;;;;;;;56.35;25.80;;;;;;;0.09;100.00;101601.19;5075522;28;20029;-47
2022/12/19 02:19:13;;;;;;;56.22;26.90;;;;;;;0.10;100.00;101597.72;5073476;28;20106;-50
2022/12/19 02:21:49;;;;;;;49.92;25.95;;;;;;;0.11;100.00;101581.34;5072243;28;20049;-51
2022/12/19 02:24:56;;;;;;;47.15;22.13;;;;;;;0.17;100.00;101583.00;5075662;28;20053;-47
2022/12/19 02:28:07;;;;;;;53.88;25.52;;;;;;;0.13;100.00;101582.16;5074122;28;20399;-46
2022/12/19 02:30:48;;;;;;;57.10;25.00;;;;;;;0.24;100.00;101579.47;5056938;28;20060;-50
2022/12/19 02:33:22;;;;;;;49.75;23.80;;;;;;;0.26;100.00;101580.34;5075382;28;20040;-51
2022/12/19 02:35:53;;;;;;;51.38;24.00;;;;;;;0.24;100.00;101574.31;5075294;28;20052;-48
2022/12/19 02:38:29;;;;;;;49.13;23.33;;;;;;;0.27;100.00;101591.53;5075271;28;20052;-48
2022/12/19 02:41:04;;;;;;;49.63;23.92;;;;;;;0.28;100.00;101578.56;5072037;28;20075;-47
2022/12/19 02:43:38;;;;;;;54.17;24.70;;;;;;;0.29;100.00;101572.53;5071316;28;20060;-53
2022/12/19 02:46:10;;;;;;;49.78;23.98;;;;;;;0.34;100.00;101564.69;5075204;28;20045;-48
2022/12/19 02:48:39;;;;;;;48.30;24.00;;;;;;;0.37;100.00;101574.16;5075449;28;20044;-51
2022/12/19 02:51:07;;;;;;;51.42;24.58;;;;;;;0.41;100.00;101565.50;5073727;28;20045;-53
2022/12/19 02:53:37;;;;;;;51.60;25.13;;;;;;;0.33;100.00;101571.63;5074775;28;20052;-53
2022/12/19 02:56:25;;;;;;;54.67;25.08;;;;;;;0.42;100.00;101560.28;5073935;28;20083;-53
2022/12/19 02:59:15;;;;;;;52.28;25.63;;;;;;;0.36;100.00;101573.31;5071893;28;20052;-54
2022/12/19 03:01:49;;;;;;;49.92;24.85;;;;;;;0.40;100.00;101554.28;5073180;28;20462;-53
2022/12/19 03:04:30;;;;;;;50.35;22.38;;;;;;;0.43;100.00;101550.81;5071475;28;20063;-53
2022/12/19 03:07:05;;;;;;;49.38;24.08;;;;;;;0.39;100.00;101546.56;5072894;28;20044;-52
2022/12/19 03:09:41;;;;;;;46.78;23.33;;;;;;;0.45;100.00;101531.81;5074559;28;20518;-51
2022/12/19 03:12:15;;;;;;;51.08;25.85;;;;;;;0.54;100.00;101543.78;5074255;28;20053;-51
2022/12/19 03:14:47;;;;;;;52.78;24.30;;;;;;;0.49;100.00;101528.31;5074600;28;20464;-53
2022/12/19 03:17:16;;;;;;;50.30;24.13;;;;;;;0.50;100.00;101530.03;5072727;28;20080;-53
2022/12/19 03:19:45;;;;;;;52.85;22.73;;;;;;;0.50;100.00;101516.22;5070979;28;20511;-52
2022/12/19 03:22:13;;;;;;;47.70;24.58;;;;;;;0.57;100.00;101529.94;5072292;28;20049;-51
2022/12/19 03:24:42;;;;;;;50.35;23.30;;;;;;;0.59;100.00;101517.84;5074145;28;20054;-50
2022/12/19 03:27:16;;;;;;;52.92;24.10;;;;;;;0.66;100.00;101514.28;5074450;28;20044;-52
2022/12/19 03:29:52;;;;;;;48.95;22.48;;;;;;;0.64;100.00;101505.69;5074608;28;20052;-51
2022/12/19 03:32:23;;;;;;;51.83;23.70;;;;;;;0.62;100.00;101510.88;5071047;28;20053;-54
2022/12/19 03:34:58;;;;;;;48.50;23.83;;;;;;;0.63;100.00;101503.97;5071120;28;20106;-52
2022/12/19 03:37:31;;;;;;;47.25;22.67;;;;;;;0.67;100.00;101514.28;5074198;28;20048;-53
2022/12/19 03:40:02;;;;;;;47.58;22.70;;;;;;;0.79;100.00;101500.31;5073007;28;20125;-51
2022/12/19 03:45:29;;;;;;;48.38;22.50;;;;;;;0.77;100.00;101511.56;5073099;28;20391;-54
2022/12/19 03:48:03;;;;;;;45.90;22.88;;;;;;;0.83;100.00;101506.28;5072235;28;20052;-51
2022/12/19 03:50:39;;;;;;;45.08;23.27;;;;;;;0.81;100.00;101510.63;5070871;28;20530;-53
2022/12/19 03:53:16;;;;;;;47.78;24.08;;;;;;;1.00;100.00;101495.69;5072456;28;20048;-53
2022/12/19 03:55:54;;;;;;;50.20;22.30;;;;;;;0.92;100.00;101502.72;5071169;28;20052;-53
2022/12/19 03:58:29;;;;;;;47.20;21.63;;;;;;;0.93;100.00;101487.16;5070622;28;20051;-51
2022/12/19 04:00:59;;;;;;;49.05;23.25;;;;;;;0.92;100.00;101492.38;5073729;28;20044;-47
2022/12/19 04:03:31;;;;;;;52.88;24.48;;;;;;;0.97;100.00;101494.00;5073191;28;20059;-47
2022/12/19 04:06:01;;;;;;;47.08;22.55;;;;;;;1.04;100.00;101489.59;5073476;28;20059;-47
2022/12/19 04:08:31;;;;;;;43.60;22.20;;;;;;;1.00;100.00;101498.28;5072940;28;20052;-48
2022/12/19 04:11:09;;;;;;;44.70;22.67;;;;;;;1.06;100.00;101482.63;5069698;28;20110;-49
2022/12/19 04:13:42;;;;;;;52.20;23.33;;;;;;;1.02;100.00;101504.28;5071171;28;20090;-47
2022/12/19 04:16:16;;;;;;;45.60;23.02;;;;;;;1.03;100.00;101485.28;5073215;28;20144;-47
2022/12/19 04:18:53;;;;;;;50.58;23.48;;;;;;;1.10;100.00;101480.84;5073521;28;20078;-48
2022/12/19 04:21:27;;;;;;;43.83;22.30;;;;;;;1.08;100.00;101483.47;5072843;28;20185;-46
2022/12/19 04:24:02;;;;;;;45.45;22.05;;;;;;;1.10;100.00;101489.47;5069720;28;20106;-49
2022/12/19 04:26:32;;;;;;;47.85;22.75;;;;;;;1.15;100.00;101469.53;5071513;28;20487;-47
2022/12/19 04:29:06;;;;;;;43.50;22.17;;;;;;;1.18;100.00;101482.44;5073242;28;20048;-48
2022/12/19 04:31:35;;;;;;;44.63;21.27;;;;;;;1.16;100.00;101466.06;5072491;28;20064;-48
2022/12/19 04:34:06;;;;;;;43.08;21.13;;;;;;;1.17;100.00;101453.97;5069446;28;20045;-46
2022/12/19 04:36:34;;;;;;;43.72;21.98;;;;;;;1.22;100.00;101459.94;5070510;28;20036;-49
2022/12/19 04:39:02;;;;;;;41.10;21.00;;;;;;;1.27;100.00;101449.47;5072947;28;20044;-50
2022/12/19 04:41:30;;;;;;;46.00;22.42;;;;;;;1.28;100.00;101441.72;5072942;28;20056;-48
2022/12/19 04:43:58;;;;;;;40.47;21.58;;;;;;;1.42;100.00;101444.06;5072723;28;20045;-49
2022/12/19 04:46:26;;;;;;;43.10;21.95;;;;;;;1.47;100.00;101438.78;5072937;28;20055;-51
2022/12/19 04:48:54;;;;;;;42.25;22.48;;;;;;;1.45;100.00;101444.00;5072723;28;20059;-51
2022/12/19 04:51:24;;;;;;;42.03;21.73;;;;;;;1.54;100.00;101437.81;5072885;28;20059;-47
2022/12/19 04:53:52;;;;;;;40.13;21.88;;;;;;;1.66;100.00;101437.59;5072293;28;20051;-46
2022/12/19 04:56:20;;;;;;;41.38;21.77;;;;;;;1.60;100.00;101455.84;5072059;28;20048;-48
2022/12/19 04:58:48;;;;;;;43.58;21.98;;;;;;;1.66;100.00;101452.28;5073021;28;20123;-47
2022/12/19 05:01:17;;;;;;;40.40;20.67;;;;;;;1.74;100.00;101434.81;5069977;28;20098;-47
2022/12/19 05:03:45;;;;;;;37.72;20.45;;;;;;;1.67;100.00;101443.63;5067606;28;20147;-47
2022/12/19 05:06:21;;;;;;;41.90;20.73;;;;;;;1.71;100.00;101439.22;5070997;28;20049;-47
2022/12/19 05:08:51;;;;;;;45.00;21.52;;;;;;;1.75;100.00;101446.06;5072890;28;20072;-46
2022/12/19 05:11:19;;;;;;;42.38;21.40;;;;;;;1.80;100.00;101437.31;5072612;28;20052;-47
2022/12/19 05:13:48;;;;;;;44.92;21.33;;;;;;;1.84;100.00;101446.75;5072728;28;20048;-45
2022/12/19 05:16:17;;;;;;;42.47;21.52;;;;;;;1.89;100.00;101431.09;5071126;28;20072;-46
2022/12/19 05:18:46;;;;;;;43.85;23.10;;;;;;;1.93;100.00;101435.31;5069784;28;20119;-46
2022/12/19 05:21:14;;;;;;;47.25;23.55;;;;;;;1.92;100.00;101422.38;5069194;28;20048;-46
2022/12/19 05:23:42;;;;;;;42.67;22.90;;;;;;;1.97;100.00;101420.56;5070483;28;20052;-49
2022/12/19 05:26:12;;;;;;;39.92;20.77;;;;;;;1.99;100.00;101434.34;5072377;28;20064;-46
2022/12/19 05:28:41;;;;;;;47.03;23.45;;;;;;;2.01;100.00;101422.22;5072441;28;20068;-47
2022/12/19 05:31:12;;;;;;;45.22;21.80;;;;;;;2.02;100.00;101431.72;5068076;28;20094;-47
2022/12/19 05:33:42;;;;;;;48.78;22.10;;;;;;;2.05;100.00;101423.00;5068561;28;20114;-48
2022/12/19 05:36:12;;;;;;;49.90;23.45;;;;;;;2.11;100.00;101428.06;5071585;28;20511;-48
2022/12/19 05:38:40;;;;;;;45.00;21.10;;;;;;;2.10;100.00;101424.63;5071795;28;20102;-50
2022/12/19 05:41:09;;;;;;;43.20;22.00;;;;;;;2.15;100.00;101425.34;5070993;28;20055;-48
2022/12/19 05:43:39;;;;;;;45.85;22.95;;;;;;;2.15;100.00;101420.16;5072146;28;20048;-49
2022/12/19 05:46:07;;;;;;;49.45;23.23;;;;;;;2.16;100.00;101428.84;5072350;28;20495;-51
2022/12/19 05:48:36;;;;;;;45.72;22.80;;;;;;;2.18;100.00;101424.44;5071486;28;20057;-48
2022/12/19 05:51:04;;;;;;;50.33;23.15;;;;;;;2.21;100.00;101424.41;5068692;28;20048;-48
2022/12/19 05:53:35;;;;;;;48.08;24.10;;;;;;;2.22;100.00;101418.31;5069295;28;20115;-48
2022/12/19 05:56:05;;;;;;;44.47;22.15;;;;;;;2.26;100.00;101426.88;5072014;28;20471;-48
2022/12/19 05:58:36;;;;;;;43.30;21.30;;;;;;;2.27;100.00;101421.66;5070824;28;20055;-48
2022/12/19 06:01:07;;;;;;;42.83;21.27;;;;;;;2.34;100.00;101419.78;5072022;28;20048;-48
2022/12/19 06:03:35;;;;;;;44.50;21.08;;;;;;;2.35;100.00;101405.94;5072099;28;20576;-49
2022/12/19 06:06:05;;;;;;;38.72;21.17;;;;;;;2.38;100.00;101415.41;5071916;28;20098;-48
2022/12/19 06:08:34;;;;;;;46.25;22.50;;;;;;;2.41;100.00;101416.16;5069981;28;20051;-47
2022/12/19 06:11:04;;;;;;;41.40;20.23;;;;;;;2.45;100.00;101417.81;5067942;28;20048;-48
2022/12/19 06:13:34;;;;;;;39.88;20.70;;;;;;;2.46;100.00;101414.34;5071193;28;20072;-48
2022/12/19 06:16:04;;;;;;;38.88;20.25;;;;;;;2.49;100.00;101418.59;5071849;28;20041;-48
2022/12/19 06:18:34;;;;;;;38.85;19.55;;;;;;;2.53;100.00;101408.09;5071855;28;20045;-48
2022/12/19 06:21:10;;;;;;;40.30;19.83;;;;;;;2.62;100.00;101411.38;5071865;28;20517;-48
2022/12/19 06:23:38;;;;;;;35.50;19.67;;;;;;;2.66;100.00;101413.03;5071842;28;20044;-47
2022/12/19 06:26:08;;;;;;;37.70;19.17;;;;;;;2.64;100.00;101414.81;5071631;28;20081;-47
2022/12/19 06:28:41;;;;;;;36.00;18.83;;;;;;;2.70;100.00;101412.09;5075031;28;20068;-46
2022/12/19 06:31:11;;;;;;;38.80;19.27;;;;;;;2.76;100.00;101408.50;5072322;28;20045;-48
2022/12/19 06:33:41;;;;;;;32.75;18.15;;;;;;;2.79;100.00;101404.06;5071761;28;20119;-47
2022/12/19 06:36:13;;;;;;;33.03;17.55;;;;;;;2.78;100.00;101407.56;5074065;28;20048;-48
2022/12/19 06:38:41;;;;;;;36.47;19.90;;;;;;;2.82;100.00;101403.13;5074901;28;20039;-46
2022/12/19 06:43:58;;;;;;;33.67;19.35;;;;;;;2.91;100.00;101407.28;5071462;28;20044;-49
2022/12/19 06:46:26;;;;;;;34.53;18.73;;;;;;;2.92;100.00;101399.44;5073604;28;20094;-50
2022/12/19 06:48:55;;;;;;;36.65;19.50;;;;;;;2.93;100.00;101410.66;5072241;28;20132;-51
2022/12/19 06:51:23;;;;;;;35.20;19.63;;;;;;;2.98;100.00;101411.41;5071717;28;20075;-47
2022/12/19 06:53:52;;;;;;;38.72;20.17;;;;;;;2.99;100.00;101411.38;5075291;28;20044;-47
2022/12/19 06:56:20;;;;;;;40.28;20.65;;;;;;;3.02;100.00;101410.44;5075033;28;20513;-47
2022/12/19 06:58:48;;;;;;;39.85;21.58;;;;;;;3.08;100.00;101417.25;5074891;28;20055;-48
2022/12/19 07:01:18;;;;;;;36.35;19.00;;;;;;;3.09;100.00;101414.59;5070227;28;20060;-47
2022/12/19 07:03:48;;;;;;;37.50;19.33;;;;;;;3.13;100.00;101413.63;5071243;28;20131;-51
2022/12/19 07:06:18;;;;;;;37.67;19.30;;;;;;;3.16;100.00;101418.78;5074377;28;20503;-48
2022/12/19 07:08:46;;;;;;;36.00;19.55;;;;;;;3.20;100.00;101415.19;5074704;28;20055;-48
2022/12/19 07:11:14;;;;;;;32.83;18.77;;;;;;;3.19;100.00;101416.09;5074728;28;20051;-47
2022/12/19 07:13:42;;;;;;;31.83;17.67;;;;;;;3.25;100.00;101420.28;5074755;28;20056;-48
2022/12/19 07:16:10;;;;;;;30.23;17.40;;;;;;;3.32;100.00;101408.81;5074116;28;20064;-47
2022/12/19 07:18:40;;;;;;;34.92;18.80;;;;;;;3.36;100.00;101413.03;5074047;28;20080;-47
2022/12/19 07:21:11;;;;;;;30.95;17.33;;;;;;;3.42;100.00;101418.97;5071601;28;20127;-48
2022/12/19 07:23:41;;;;;;;29.70;17.42;;;;;;;3.43;100.00;101424.13;5071372;28;20060;-48
2022/12/19 07:26:09;;;;;;;28.23;15.93;;;;;;;3.51;100.00;101417.00;5073347;28;20053;-49
2022/12/19 07:28:37;;;;;;;27.63;16.38;;;;;;;3.47;100.00;101423.16;5074401;28;20048;-48
2022/12/19 07:31:06;;;;;;;38.58;18.45;;;;;;;3.53;100.00;101420.41;5074387;28;20048;-51
2022/12/19 07:33:34;;;;;;;33.55;18.25;;;;;;;3.53;100.00;101428.22;5074394;28;20499;-48
2022/12/19 07:36:02;;;;;;;34.97;17.83;;;;;;;3.56;100.00;101414.28;5073042;28;20131;-49
2022/12/19 07:38:30;;;;;;;32.17;19.23;;;;;;;3.64;100.00;101414.94;5071275;28;20098;-49
2022/12/19 07:41:02;;;;;;;35.00;18.73;;;;;;;3.64;100.00;101412.34;5070168;28;20595;-47
2022/12/19 07:43:30;;;;;;;35.72;17.55;;;;;;;3.64;100.00;101419.25;5073576;28;20079;-51
2022/12/19 07:46:01;;;;;;;33.13;17.83;;;;;;;3.70;100.00;101419.09;5071773;28;20514;-52
2022/12/19 07:48:30;;;;;;;31.50;17.55;;;;;;;3.77;100.00;101407.63;5069530;28;20052;-48
2022/12/19 07:50:58;;;;;;;34.75;18.33;;;;;;;3.78;100.00;101409.34;5072312;28;20048;-50
2022/12/19 07:53:28;;;;;;;35.88;18.88;;;;;;;3.77;100.00;101418.03;5073961;28;20495;-52
2022/12/19 07:55:56;;;;;;;32.33;17.70;;;;;;;3.86;100.00;101415.19;5069490;28;20040;-51
2022/12/19 07:58:25;;;;;;;37.22;19.13;;;;;;;3.83;100.00;101422.22;5070385;28;20041;-50
2022/12/19 08:00:55;;;;;;;38.50;19.17;;;;;;;3.85;100.00;101425.66;5072551;28;20534;-50
2022/12/19 08:03:23;;;;;;;36.92;17.77;;;;;;;3.87;100.00;101422.09;5073688;28;20053;-49
2022/12/19 08:05:52;;;;;;;35.53;17.38;;;;;;;3.91;100.00;101424.63;5073501;28;20057;-50
2022/12/19 08:08:20;;;;;;;33.30;18.85;;;;;;;3.94;100.00;101421.91;5073508;28;20048;-50
2022/12/19 08:10:48;;;;;;;32.45;17.65;;;;;;;4.02;100.00;101423.44;5073627;28;20488;-50
2022/12/19 08:13:16;;;;;;;26.15;15.07;;;;;;;4.07;100.00;101426.72;5072747;28;20060;-49
2022/12/19 08:15:46;;;;;;;29.83;15.57;;;;;;;4.15;100.00;101418.72;5072197;28;20548;-53
2022/12/19 08:18:14;;;;;;;23.95;13.50;;;;;;;4.18;100.00;101425.56;5073594;28;20148;-52
2022/12/19 08:20:45;;;;;;;20.10;11.07;;;;;;;4.51;100.00;101426.34;5073370;28;20059;-49
2022/12/19 08:23:13;;;;;;;22.05;12.23;;;;;;;4.63;100.00;101435.50;5073526;28;20083;-49
2022/12/19 08:25:41;;;;;;;20.92;11.27;;;;;;;4.63;100.00;101430.28;5073327;28;20127;-53
2022/12/19 08:28:09;;;;;;;22.98;12.38;;;;;;;4.83;100.00;101434.06;5073336;28;20044;-52
2022/12/19 08:30:38;;;;;;;23.05;12.07;;;;;;;4.87;100.00;101436.50;5071986;28;20507;-49
2022/12/19 08:33:08;;;;;;;24.05;12.63;;;;;;;4.96;100.00;101437.94;5073034;28;20087;-49
2022/12/19 08:35:36;;;;;;;22.65;11.82;;;;;;;5.06;100.00;101431.56;5072571;28;20110;-50
2022/12/19 08:38:05;;;;;;;22.58;12.38;;;;;;;5.02;100.00;101440.38;5068949;28;20047;-47
2022/12/19 08:40:34;;;;;;;25.45;11.88;;;;;;;5.08;100.00;101434.09;5070290;28;20048;-51
2022/12/19 08:43:02;;;;;;;22.65;11.18;;;;;;;5.10;100.00;101434.91;5073117;28;20059;-49
2022/12/19 08:45:30;;;;;;;23.60;11.57;;;;;;;5.15;100.00;101438.19;5072784;28;20055;-49
2022/12/19 08:47:58;;;;;;;20.63;11.52;;;;;;;5.23;100.00;101441.41;5073276;28;20048;-52
2022/12/19 08:50:28;;;;;;;21.23;11.05;;;;;;;5.32;100.00;101442.03;5072802;28;20055;-49
2022/12/19 08:52:59;;;;;;;23.70;11.88;;;;;;;5.31;100.00;101433.34;5072869;28;20110;-51
2022/12/19 08:55:27;;;;;;;20.23;11.38;;;;;;;5.31;100.00;101440.31;5071962;28;20047;-49
2022/12/19 08:57:56;;;;;;;19.35;10.68;;;;;;;5.40;100.00;101440.03;5072686;28;20059;-49
2022/12/19 09:00:24;;;;;;;23.23;11.50;;;;;;;5.41;100.00;101433.88;5072455;28;20479;-51
2022/12/19 09:02:54;;;;;;;20.45;10.77;;;;;;;5.46;100.00;101431.13;5072750;28;20055;-47
2022/12/19 09:05:22;;;;;;;20.02;11.05;;;;;;;5.46;100.00;101437.19;5072478;28;20052;-51
2022/12/19 09:08:12;;;;;;;20.70;11.52;;;;;;;5.45;100.00;101439.84;5070247;28;20071;-52
2022/12/19 09:10:40;;;;;;;19.50;11.35;;;;;;;5.45;100.00;101445.91;5069111;28;20518;-54
2022/12/19 09:13:11;;;;;;;19.67;10.68;;;;;;;5.45;100.00;101440.69;5072341;28;20105;-53
2022/12/19 09:15:39;;;;;;;20.65;12.10;;;;;;;5.45;100.00;101448.50;5072483;28;20044;-53
2022/12/19 09:18:08;;;;;;;17.48;10.75;;;;;;;5.46;100.00;101449.38;5072250;28;20419;-49
2022/12/19 09:20:37;;;;;;;17.45;10.60;;;;;;;5.48;100.00;101445.81;5070880;28;20098;-49
2022/12/19 09:23:05;;;;;;;17.45;10.45;;;;;;;5.52;100.00;101444.81;5070313;28;20518;-52
2022/12/19 09:25:35;;;;;;;19.42;11.10;;;;;;;5.47;100.00;101448.47;5069100;28;20037;-50
2022/12/19 09:28:04;;;;;;;18.15;11.07;;;;;;;5.50;100.00;101459.66;5071225;28;20453;-52
2022/12/19 09:30:56;;;;;;;18.65;11.48;;;;;;;5.50;100.00;101457.03;5067599;28;20146;-51
2022/12/19 09:33:24;;;;;;;17.95;10.77;;;;;;;5.53;100.00;101456.09;5068311;28;20060;-52
2022/12/19 09:35:54;;;;;;;20.63;11.43;;;;;;;5.51;100.00;101455.31;5072447;28;20430;-50
2022/12/19 09:38:25;;;;;;;18.65;10.55;;;;;;;5.53;100.00;101458.69;5072357;28;20048;-53
2022/12/19 09:41:07;;;;;;;23.95;10.93;;;;;;;5.52;100.00;101457.88;5072106;28;20507;-53
2022/12/19 09:43:51;;;;;;;19.67;10.90;;;;;;;5.57;100.00;101453.31;5072506;28;20119;-51
2022/12/19 09:46:27;;;;;;;19.70;10.23;;;;;;;5.64;100.00;101453.13;5072336;28;21022;-50
2022/12/19 09:48:56;;;;;;;16.70;10.75;;;;;;;5.70;100.00;101455.50;5070731;28;20110;-49
2022/12/19 09:51:34;;;;;;;18.13;10.15;;;;;;;5.70;100.00;101452.88;5068760;28;20044;-50
2022/12/19 09:54:11;;;;;;;19.17;10.15;;;;;;;5.73;100.00;101461.47;5070524;28;20047;-50
2022/12/19 09:56:43;;;;;;;19.38;9.82;;;;;;;5.73;100.00;101450.19;5071875;28;20425;-52
2022/12/19 09:59:22;;;;;;;15.27;9.73;;;;;;;5.76;100.00;101452.69;5070057;28;20059;-54
2022/12/19 10:02:24;;;;;;;17.45;10.25;;;;;;;5.73;100.00;101460.63;5069055;28;20449;-51
2022/12/19 10:04:59;;;;;;;15.63;9.60;;;;;;;5.78;100.00;101465.69;5072290;28;20080;-51
2022/12/19 10:07:48;;;;;;;18.50;9.93;;;;;;;5.82;100.00;101460.31;5075837;28;20106;-54
2022/12/19 10:10:47;;;;;;;17.02;9.48;;;;;;;5.82;100.00;101456.84;5076078;28;20052;-49
2022/12/19 10:14:01;;;;;;;15.88;9.40;;;;;;;5.84;100.00;101455.88;5072142;28;20072;-51
2022/12/19 10:16:36;;;;;;;21.02;10.55;;;;;;;5.83;100.00;101454.16;5074124;28;20040;-50
2022/12/19 10:19:07;;;;;;;16.38;9.48;;;;;;;5.90;100.00;101445.22;5075894;28;20041;-50
2022/12/19 10:21:42;;;;;;;17.02;9.40;;;;;;;5.88;100.00;101446.19;5074487;28;20044;-52
2022/12/19 10:24:57;;;;;;;17.90;9.88;;;;;;;5.87;100.00;101455.75;5074509;28;20049;-52
2022/12/19 10:27:44;;;;;;;15.23;9.00;;;;;;;5.86;100.00;101450.59;5072132;28;20044;-53
2022/12/19 10:30:31;;;;;;;17.10;9.65;;;;;;;5.89;100.00;101446.13;5075644;28;20464;-52
2022/12/19 10:33:12;;;;;;;15.68;8.93;;;;;;;5.93;100.00;101457.28;5075668;28;20080;-50
2022/12/19 10:35:54;;;;;;;14.75;8.95;;;;;;;5.94;100.00;101453.78;5061539;28;20148;-52
2022/12/19 10:38:29;;;;;;;16.55;8.77;;;;;;;5.97;100.00;101453.69;5055328;28;20527;-50
2022/12/19 10:41:13;;;;;;;17.98;9.25;;;;;;;6.01;100.00;101457.94;5074703;28;20033;-52
2022/12/19 10:43:54;;;;;;;13.70;9.32;;;;;;;6.08;100.00;101454.19;5059052;28;20054;-50
2022/12/19 10:46:35;;;;;;;18.15;10.00;;;;;;;6.11;100.00;101448.00;5060806;28;20052;-53
2022/12/19 10:49:10;;;;;;;17.42;10.30;;;;;;;6.13;100.00;101448.78;5071064;28;20044;-53
2022/12/19 10:51:39;;;;;;;17.67;10.48;;;;;;;6.14;100.00;101445.25;5073983;28;20036;-51
2022/12/19 10:54:07;;;;;;;15.52;9.65;;;;;;;6.18;100.00;101449.47;5074694;28;20044;-51
2022/12/19 10:56:36;;;;;;;19.77;9.60;;;;;;;6.21;100.00;101441.50;5075194;28;20041;-51
2022/12/19 10:59:16;;;;;;;18.52;9.85;;;;;;;6.24;100.00;101440.53;5075686;28;20046;-51
2022/12/19 11:01:47;;;;;;;17.83;10.07;;;;;;;6.24;100.00;101446.63;5069646;28;20051;-52
2022/12/19 11:04:32;;;;;;;16.63;9.38;;;;;;;6.25;100.00;101437.88;5072631;28;20119;-54
2022/12/19 11:07:18;;;;;;;17.27;9.90;;;;;;;6.29;100.00;101436.00;5074940;28;20040;-53
2022/12/19 11:09:46;;;;;;;17.20;9.07;;;;;;;6.29;100.00;101438.63;5074726;28;20123;-51
2022/12/19 11:12:34;;;;;;;14.05;8.38;;;;;;;6.33;100.00;101444.59;5074575;28;20036;-51
2022/12/19 11:15:23;;;;;;;15.05;8.85;;;;;;;6.37;100.00;101446.19;5071237;28;20067;-53
2022/12/19 11:18:13;;;;;;;14.93;8.45;;;;;;;6.43;100.00;101443.31;5069903;28;20053;-53
2022/12/19 11:21:04;;;;;;;16.38;8.15;;;;;;;6.41;100.00;101442.53;5073026;28;20072;-54
2022/12/19 11:23:55;;;;;;;13.88;8.38;;;;;;;6.43;100.00;101438.09;5071212;28;20075;-53
2022/12/19 11:26:45;;;;;;;14.05;8.77;;;;;;;6.44;100.00;101434.56;5074282;28;20502;-52
2022/12/19 11:29:44;;;;;;;16.65;8.85;;;;;;;6.48;100.00;101428.31;5074511;28;20470;-53
2022/12/19 11:32:35;;;;;;;13.90;8.57;;;;;;;6.47;100.00;101424.00;5074349;28;20052;-50
2022/12/19 11:35:24;;;;;;;14.30;8.52;;;;;;;6.49;100.00;101424.78;5074207;28;20663;-49
2022/12/19 11:38:07;;;;;;;14.80;8.70;;;;;;;6.53;100.00;101428.13;5074362;28;20068;-52
2022/12/19 11:40:39;;;;;;;16.30;7.78;;;;;;;6.53;100.00;101429.00;5074255;28;20428;-49